Time;durP1;ratioP1;P1;durP2;ratioP2;P2;SDS_P1;SDS_P2;PMS_P1;PMS_P2;Temp;Humidity;BMP_temperature;BMP_pressure;BME280_temperature;BME280_humidity;BME280_pressure;Samples;Min_cycle;Max_cycle;Signal;HPM_P1;HPM_P2
2022/05/22 00:00:48;;;;;;;;;;;;;;;22.67;31.96;101323.53;2083614;28;1265;-61
2022/05/22 00:01:49;;;;;;;;;;;;;;;22.65;31.46;101320.91;2083668;28;981;-60
2022/05/22 00:02:49;;;;;;;;;;;;;;;22.65;31.96;101327.16;2083572;28;1001;-61
2022/05/22 00:03:50;;;;;;;;;;;;;;;22.64;31.97;101320.00;2083619;28;914;-60
2022/05/22 00:04:50;;;;;;;;;;;;;;;22.62;32.35;101321.88;2083617;28;847;-60
2022/05/22 00:05:50;;;;;;;;;;;;;;;22.62;31.48;101323.69;2083602;28;989;-60
2022/05/22 00:06:50;;;;;;;;;;;;;;;22.61;32.40;101324.63;2083621;28;772;-61
2022/05/22 00:07:50;;;;;;;;;;;;;;;22.61;31.63;101325.50;2082908;28;1277;-60
2022/05/22 00:08:51;;;;;;;;;;;;;;;22.60;31.78;101325.56;2082988;28;1029;-60
2022/05/22 00:09:51;;;;;;;;;;;;;;;22.58;31.84;101325.59;2083509;28;1052;-61
2022/05/22 00:10:51;;;;;;;;;;;;;;;22.59;32.52;101326.50;2083056;28;753;-60
2022/05/22 00:11:51;;;;;;;;;;;;;;;22.58;31.95;101333.72;2082987;28;859;-60
2022/05/22 00:12:51;;;;;;;;;;;;;;;22.57;31.71;101322.97;2083504;28;969;-61
2022/05/22 00:13:51;;;;;;;;;;;;;;;22.58;31.83;101338.25;2083589;28;843;-60
2022/05/22 00:14:52;;;;;;;;;;;;;;;22.55;31.81;101331.09;2083513;28;879;-61
2022/05/22 00:17:11;;;;;;;;;;;;;;;22.55;31.80;101332.94;2084633;28;618;-60
2022/05/22 00:18:11;;;;;;;;;;;;;;;22.53;32.47;101329.41;2083431;28;1110;-60
2022/05/22 00:19:25;;;;;;;;;;;;;;;22.54;31.79;101331.19;2083529;28;807;-60
2022/05/22 00:20:25;;;;;;;;;;;;;;;22.52;31.70;101325.81;2083377;28;1981;-61
2022/05/22 00:21:26;;;;;;;;;;;;;;;22.53;31.70;101332.13;2083461;28;807;-60
2022/05/22 00:22:26;;;;;;;;;;;;;;;22.53;31.80;101334.81;2083482;28;989;-59
2022/05/22 00:23:28;;;;;;;;;;;;;;;22.51;31.81;101332.16;2083481;28;977;-61
2022/05/22 00:24:32;;;;;;;;;;;;;;;22.51;32.71;101332.16;2083421;28;784;-60
2022/05/22 00:25:32;;;;;;;;;;;;;;;22.50;32.58;101333.09;2083433;28;839;-61
2022/05/22 00:26:33;;;;;;;;;;;;;;;22.50;32.27;101327.69;2083474;28;1247;-61
2022/05/22 00:27:33;;;;;;;;;;;;;;;22.50;31.99;101330.38;2083445;28;891;-60
2022/05/22 00:28:33;;;;;;;;;;;;;;;22.49;32.14;101334.00;2083461;28;1036;-60
2022/05/22 00:29:34;;;;;;;;;;;;;;;22.48;31.86;101330.44;2083432;28;779;-60
2022/05/22 00:30:35;;;;;;;;;;;;;;;22.48;31.93;101337.66;2083411;28;992;-60
2022/05/22 00:31:35;;;;;;;;;;;;;;;22.47;32.00;101333.19;2083413;28;807;-61
2022/05/22 00:32:35;;;;;;;;;;;;;;;22.47;31.94;101330.47;2083386;28;775;-60
2022/05/22 00:33:36;;;;;;;;;;;;;;;22.47;32.63;101333.19;2083886;28;989;-61
2022/05/22 00:34:36;;;;;;;;;;;;;;;22.43;31.93;101326.97;2083343;28;1080;-60
2022/05/22 00:35:37;;;;;;;;;;;;;;;22.46;31.99;101332.31;2083384;28;796;-60
2022/05/22 00:36:37;;;;;;;;;;;;;;;22.46;32.84;101335.00;2083339;28;799;-60
2022/05/22 00:37:38;;;;;;;;;;;;;;;22.46;32.35;101336.81;2083305;28;1306;-59
2022/05/22 00:38:38;;;;;;;;;;;;;;;22.45;32.47;101330.56;2083365;28;811;-61
2022/05/22 00:39:38;;;;;;;;;;;;;;;22.45;32.33;101326.94;2083176;28;1902;-61
2022/05/22 00:40:38;;;;;;;;;;;;;;;22.44;32.13;101333.28;2082657;28;1009;-60
2022/05/22 00:41:38;;;;;;;;;;;;;;;22.42;32.33;101330.63;2082725;28;819;-60
2022/05/22 00:42:42;;;;;;;;;;;;;;;22.42;32.16;101332.41;2083322;28;772;-60
2022/05/22 00:43:44;;;;;;;;;;;;;;;22.42;32.09;101325.22;2083305;28;858;-60
2022/05/22 00:44:45;;;;;;;;;;;;;;;22.42;32.27;101332.41;2083278;28;783;-60
2022/05/22 00:45:45;;;;;;;;;;;;;;;22.41;32.34;101328.84;2083295;28;788;-60
2022/05/22 00:46:45;;;;;;;;;;;;;;;22.43;32.20;101334.19;2083221;28;867;-60
2022/05/22 00:47:45;;;;;;;;;;;;;;;22.41;32.16;101333.34;2083072;28;795;-60
2022/05/22 00:48:50;;;;;;;;;;;;;;;22.40;32.50;101332.47;2083371;28;768;-60
2022/05/22 00:49:53;;;;;;;;;;;;;;;22.40;32.24;101334.28;2083255;28;930;-60
2022/05/22 00:50:57;;;;;;;;;;;;;;;22.40;32.92;101328.88;2083269;28;866;-60
2022/05/22 00:52:00;;;;;;;;;;;;;;;22.40;32.29;101328.88;2083258;28;1049;-60
2022/05/22 00:53:01;;;;;;;;;;;;;;;22.39;32.99;101335.22;2083238;28;863;-60
2022/05/22 00:54:04;;;;;;;;;;;;;;;22.39;32.44;101333.41;2083181;28;985;-60
2022/05/22 00:55:09;;;;;;;;;;;;;;;22.39;32.33;101337.91;2083107;28;981;-61
2022/05/22 00:56:13;;;;;;;;;;;;;;;22.38;32.30;101330.75;2083121;28;1122;-60
2022/05/22 00:57:25;;;;;;;;;;;;;;;22.38;32.55;101334.34;2083173;28;990;-60
2022/05/22 00:58:27;;;;;;;;;;;;;;;22.38;32.33;101338.84;2082506;28;1172;-60
2022/05/22 00:59:31;;;;;;;;;;;;;;;22.38;32.47;101330.75;2082501;28;862;-60
2022/05/22 01:00:33;;;;;;;;;;;;;;;22.37;32.60;101335.28;2083136;28;1947;-60
2022/05/22 01:01:35;;;;;;;;;;;;;;;22.36;32.37;101331.72;2083188;28;803;-61
2022/05/22 01:03:55;;;;;;;;;;;;;;;22.36;32.43;101339.81;2083161;28;598;-60
2022/05/22 01:04:55;;;;;;;;;;;;;;;22.36;33.19;101344.31;2082730;28;716;-61
2022/05/22 01:05:57;;;;;;;;;;;;;;;22.36;32.36;101345.22;2083963;28;934;-61
2022/05/22 01:06:57;;;;;;;;;;;;;;;22.37;32.87;101340.69;2086092;28;1060;-61
2022/05/22 01:07:57;;;;;;;;;;;;;;;22.37;33.04;101340.69;2083146;28;871;-60
2022/05/22 01:08:57;;;;;;;;;;;;;;;22.38;32.50;101342.44;2083084;28;993;-59
2022/05/22 01:09:58;;;;;;;;;;;;;;;22.38;32.51;101338.84;2083125;28;776;-60
2022/05/22 01:11:00;;;;;;;;;;;;;;;22.39;33.23;101343.31;2083048;28;989;-60
2022/05/22 01:12:04;;;;;;;;;;;;;;;22.39;33.11;101335.22;2083051;28;922;-59
2022/05/22 01:13:05;;;;;;;;;;;;;;;22.38;32.76;101347.84;2083105;28;844;-60
2022/05/22 01:14:08;;;;;;;;;;;;;;;22.38;32.33;101338.84;2083060;28;846;-60
2022/05/22 01:15:09;;;;;;;;;;;;;;;22.38;32.50;101345.16;2083117;28;993;-62
2022/05/22 01:16:09;;;;;;;;;;;;;;;22.38;32.30;101333.44;2083039;28;993;-61
2022/05/22 01:17:11;;;;;;;;;;;;;;;22.38;32.76;101339.75;2090757;28;699;-61
2022/05/22 01:18:11;;;;;;;;;;;;;;;22.36;32.97;101337.13;2090467;28;1286;-61
2022/05/22 01:19:13;;;;;;;;;;;;;;;22.36;32.81;101337.13;2083041;28;815;-60
2022/05/22 01:20:13;;;;;;;;;;;;;;;22.36;32.54;101345.22;2082975;28;1973;-60
2022/05/22 01:21:15;;;;;;;;;;;;;;;22.36;32.86;101338.91;2083042;28;922;-60
2022/05/22 01:22:15;;;;;;;;;;;;;;;22.34;32.38;101338.09;2083005;28;759;-61
2022/05/22 01:23:16;;;;;;;;;;;;;;;22.35;32.53;101339.84;2084037;28;1036;-60
2022/05/22 01:24:16;;;;;;;;;;;;;;;22.34;33.24;101336.28;2082997;28;819;-60
2022/05/22 01:25:16;;;;;;;;;;;;;;;22.35;33.18;101342.56;2083007;28;1000;-60
2022/05/22 01:26:17;;;;;;;;;;;;;;;22.35;32.80;101338.06;2083067;28;833;-60
2022/05/22 01:27:18;;;;;;;;;;;;;;;22.35;32.54;101340.75;2083015;28;890;-61
2022/05/22 01:28:19;;;;;;;;;;;;;;;22.34;32.62;101338.97;2083003;28;792;-61
2022/05/22 01:29:19;;;;;;;;;;;;;;;22.35;32.69;101346.16;2082300;28;1360;-60
2022/05/22 01:30:24;;;;;;;;;;;;;;;22.35;32.44;101346.16;2082336;28;918;-60
2022/05/22 01:31:24;;;;;;;;;;;;;;;22.36;32.40;101338.91;2082962;28;1008;-61
2022/05/22 01:32:25;;;;;;;;;;;;;;;22.35;32.59;101340.75;2082994;28;770;-60
2022/05/22 01:33:25;;;;;;;;;;;;;;;22.35;32.81;101342.56;2082948;28;791;-60
2022/05/22 01:34:25;;;;;;;;;;;;;;;22.34;32.86;101344.38;2082969;28;969;-61
2022/05/22 01:35:26;;;;;;;;;;;;;;;22.34;32.32;101344.38;2082881;28;831;-60
2022/05/22 01:36:26;;;;;;;;;;;;;;;22.34;32.70;101347.09;2082974;28;811;-61
2022/05/22 01:37:26;;;;;;;;;;;;;;;22.33;32.83;101345.31;2082935;28;989;-61
2022/05/22 01:38:27;;;;;;;;;;;;;;;22.33;32.45;101348.00;2082910;28;771;-60
2022/05/22 01:39:27;;;;;;;;;;;;;;;22.33;32.77;101344.41;2083826;28;855;-60
2022/05/22 01:40:27;;;;;;;;;;;;;;;22.32;32.53;101346.25;2083585;28;1886;-61
2022/05/22 01:41:27;;;;;;;;;;;;;;;22.33;32.49;101342.63;2082233;28;1311;-60
2022/05/22 01:42:28;;;;;;;;;;;;;;;22.33;32.40;101347.13;2082349;28;751;-60
2022/05/22 01:43:29;;;;;;;;;;;;;;;22.33;32.48;101345.31;2082872;28;997;-59
2022/05/22 01:44:29;;;;;;;;;;;;;;;22.32;32.32;101339.94;2083042;28;815;-60
2022/05/22 01:45:29;;;;;;;;;;;;;;;22.31;32.40;101343.59;2082211;28;848;-60
2022/05/22 01:46:29;;;;;;;;;;;;;;;22.32;32.70;101345.34;2082273;28;1526;-61
2022/05/22 01:47:31;;;;;;;;;;;;;;;22.32;32.47;101345.34;2082845;28;826;-61
2022/05/22 01:48:31;;;;;;;;;;;;;;;22.32;32.49;101340.84;2082872;28;985;-60
2022/05/22 01:49:32;;;;;;;;;;;;;;;22.33;32.61;101345.31;2082935;28;776;-60
2022/05/22 01:50:32;;;;;;;;;;;;;;;22.33;32.83;101344.41;2082904;28;926;-60
2022/05/22 01:51:33;;;;;;;;;;;;;;;22.33;33.27;101347.13;2082887;28;819;-61
2022/05/22 01:52:34;;;;;;;;;;;;;;;22.33;33.27;101347.13;2082720;28;1138;-60
2022/05/22 01:53:34;;;;;;;;;;;;;;;22.31;32.63;101344.47;2082849;28;779;-61
2022/05/22 01:54:34;;;;;;;;;;;;;;;22.31;32.50;101349.88;2083258;28;898;-60
2022/05/22 01:55:34;;;;;;;;;;;;;;;22.31;32.43;101343.59;2082874;28;769;-60
2022/05/22 01:56:35;;;;;;;;;;;;;;;22.31;33.06;101346.28;2082841;28;902;-60
2022/05/22 01:57:36;;;;;;;;;;;;;;;22.31;33.31;101343.59;2082838;28;807;-60
2022/05/22 01:58:36;;;;;;;;;;;;;;;22.31;32.78;101343.59;2082090;28;1246;-60
2022/05/22 01:59:36;;;;;;;;;;;;;;;22.30;32.84;101342.72;2082819;28;1910;-61
2022/05/22 02:00:37;;;;;;;;;;;;;;;22.30;32.57;101341.81;2084489;28;1060;-60
2022/05/22 02:01:37;;;;;;;;;;;;;;;22.29;33.31;101343.66;2084555;28;858;-61
2022/05/22 02:02:37;;;;;;;;;;;;;;;22.30;32.85;101344.50;2084549;28;838;-60
2022/05/22 02:03:38;;;;;;;;;;;;;;;22.30;32.41;101344.50;2084518;28;822;-60
2022/05/22 02:04:38;;;;;;;;;;;;;;;22.29;32.49;101343.66;2084502;28;839;-60
2022/05/22 02:05:38;;;;;;;;;;;;;;;22.30;32.48;101337.31;2084546;28;871;-61
2022/05/22 02:08:19;;;;;;;;;;;;;;;22.30;32.53;101342.72;2084552;28;1024;-60
2022/05/22 02:09:17;;;;;;;;;;;;;;;22.30;32.50;101342.72;2085993;28;1051;-61
2022/05/22 02:10:17;;;;;;;;;;;;;;;22.31;32.55;101343.59;2084603;28;981;-60
2022/05/22 02:11:17;;;;;;;;;;;;;;;22.30;32.85;101344.50;2084635;28;743;-61
2022/05/22 02:12:17;;;;;;;;;;;;;;;22.30;33.10;101341.81;2084616;28;716;-60
2022/05/22 02:13:21;;;;;;;;;;;;;;;22.29;33.39;101346.34;2084423;28;1052;-60
2022/05/22 02:14:22;;;;;;;;;;;;;;;22.29;33.41;101343.66;2084472;28;867;-61
2022/05/22 02:15:22;;;;;;;;;;;;;;;22.28;32.55;101338.28;2084450;28;914;-60
2022/05/22 02:16:22;;;;;;;;;;;;;;;22.29;32.90;101342.75;2084598;28;732;-61
2022/05/22 02:17:22;;;;;;;;;;;;;;;22.29;33.18;101345.44;2084394;28;1063;-60
2022/05/22 02:18:23;;;;;;;;;;;;;;;22.28;32.98;101344.59;2084397;28;879;-60
2022/05/22 02:19:23;;;;;;;;;;;;;;;22.29;32.89;101345.44;2084452;28;859;-60
2022/05/22 02:20:23;;;;;;;;;;;;;;;22.28;33.15;101349.97;2084475;28;1914;-60
2022/05/22 02:21:24;;;;;;;;;;;;;;;22.28;32.63;101338.28;2084461;28;1064;-60
2022/05/22 02:22:24;;;;;;;;;;;;;;;22.28;32.75;101349.97;2084392;28;974;-62
2022/05/22 02:23:24;;;;;;;;;;;;;;;22.29;32.92;101348.16;2085067;28;993;-60
2022/05/22 02:24:24;;;;;;;;;;;;;;;22.30;32.62;101344.50;2085275;28;985;-61
2022/05/22 02:25:29;;;;;;;;;;;;;;;22.29;32.65;101345.44;2084295;28;882;-60
2022/05/22 02:26:29;;;;;;;;;;;;;;;22.29;32.53;101343.66;2084395;28;938;-60
2022/05/22 02:27:31;;;;;;;;;;;;;;;22.30;33.24;101344.50;2084328;28;1017;-60
2022/05/22 02:28:31;;;;;;;;;;;;;;;22.28;32.62;101339.19;2084403;28;1086;-60
2022/05/22 02:29:32;;;;;;;;;;;;;;;22.28;32.93;101343.69;2084398;28;794;-60
2022/05/22 02:30:34;;;;;;;;;;;;;;;22.28;33.10;101341.88;2084319;28;791;-60
2022/05/22 02:31:34;;;;;;;;;;;;;;;22.27;33.33;101341.91;2084391;28;1052;-61
2022/05/22 02:32:36;;;;;;;;;;;;;;;22.25;32.74;101344.69;2084265;28;977;-60
2022/05/22 02:33:37;;;;;;;;;;;;;;;22.26;32.94;101337.44;2084355;28;824;-60
2022/05/22 02:34:37;;;;;;;;;;;;;;;22.26;33.58;101340.16;2084289;28;879;-61
2022/05/22 02:35:38;;;;;;;;;;;;;;;22.26;32.95;101341.03;2084236;28;783;-60
2022/05/22 02:36:38;;;;;;;;;;;;;;;22.26;32.95;101337.44;2084234;28;1102;-61
2022/05/22 02:37:49;;;;;;;;;;;;;;;22.26;33.40;101340.16;2084175;28;1211;-62
2022/05/22 02:38:49;;;;;;;;;;;;;;;22.26;32.79;101341.03;2084332;28;859;-61
2022/05/22 02:39:49;;;;;;;;;;;;;;;22.25;33.40;101339.28;2085350;28;1947;-60
2022/05/22 02:40:50;;;;;;;;;;;;;;;22.26;33.01;101338.34;2085123;28;838;-61
2022/05/22 02:41:50;;;;;;;;;;;;;;;22.27;33.41;101340.13;2084295;28;839;-59
2022/05/22 02:42:51;;;;;;;;;;;;;;;22.27;33.42;101334.72;2084258;28;771;-60
2022/05/22 02:43:52;;;;;;;;;;;;;;;22.27;33.54;101339.22;2084248;28;839;-61
2022/05/22 02:44:52;;;;;;;;;;;;;;;22.27;33.46;101333.81;2084259;28;834;-61
2022/05/22 02:45:52;;;;;;;;;;;;;;;22.26;33.59;101341.03;2084171;28;923;-60
2022/05/22 02:46:52;;;;;;;;;;;;;;;22.25;33.07;101332.97;2084216;28;784;-60
2022/05/22 02:47:53;;;;;;;;;;;;;;;22.25;32.98;101336.59;2084220;28;698;-61
2022/05/22 02:48:53;;;;;;;;;;;;;;;22.25;33.48;101336.59;2084198;28;808;-60
2022/05/22 02:49:53;;;;;;;;;;;;;;;22.23;33.67;101330.34;2084214;28;886;-62
2022/05/22 02:50:53;;;;;;;;;;;;;;;22.24;33.51;101337.50;2084176;28;986;-60
2022/05/22 02:51:53;;;;;;;;;;;;;;;22.24;33.01;101334.81;2084221;28;898;-60
2022/05/22 02:52:54;;;;;;;;;;;;;;;22.24;32.88;101337.50;2084179;28;839;-60
2022/05/22 02:53:54;;;;;;;;;;;;;;;22.25;33.13;101338.38;2084183;28;873;-61
2022/05/22 02:54:54;;;;;;;;;;;;;;;22.26;32.73;101337.44;2084151;28;784;-60
2022/05/22 02:55:55;;;;;;;;;;;;;;;22.25;33.44;101333.88;2084175;28;879;-60
2022/05/22 02:56:55;;;;;;;;;;;;;;;22.26;33.02;101335.66;2084112;28;815;-60
2022/05/22 02:57:55;;;;;;;;;;;;;;;22.25;33.16;101336.59;2091710;28;765;-61
2022/05/22 02:58:55;;;;;;;;;;;;;;;22.24;32.95;101337.50;2091760;28;851;-60
2022/05/22 02:59:56;;;;;;;;;;;;;;;22.24;32.89;101334.81;2083367;28;1898;-60
2022/05/22 03:00:56;;;;;;;;;;;;;;;22.25;33.01;101339.28;2083564;28;857;-60
2022/05/22 03:01:56;;;;;;;;;;;;;;;22.26;33.40;101332.06;2084067;28;773;-60
2022/05/22 03:02:57;;;;;;;;;;;;;;;22.24;32.99;101339.31;2084057;28;890;-61
2022/05/22 03:03:58;;;;;;;;;;;;;;;22.24;33.14;101332.13;2084165;28;794;-60
2022/05/22 03:04:58;;;;;;;;;;;;;;;22.23;32.89;101335.75;2084028;28;1025;-60
2022/05/22 03:07:17;;;;;;;;;;;;;;;22.22;33.72;101331.28;2084101;28;618;-61
2022/05/22 03:08:18;;;;;;;;;;;;;;;22.22;33.07;101336.69;2084061;28;985;-60
2022/05/22 03:09:19;;;;;;;;;;;;;;;22.22;33.24;101333.97;2084585;28;981;-61
2022/05/22 03:10:19;;;;;;;;;;;;;;;22.22;33.45;101333.97;2083983;28;823;-60
2022/05/22 03:11:19;;;;;;;;;;;;;;;22.23;33.58;101338.44;2084064;28;807;-60
2022/05/22 03:12:22;;;;;;;;;;;;;;;22.23;33.11;101335.75;2083313;28;792;-60
2022/05/22 03:13:22;;;;;;;;;;;;;;;22.23;33.78;101330.34;2083490;28;958;-61
2022/05/22 03:14:22;;;;;;;;;;;;;;;22.23;33.78;101329.44;2084008;28;1037;-60
2022/05/22 03:15:23;;;;;;;;;;;;;;;22.23;33.75;101335.75;2084007;28;791;-62
2022/05/22 03:16:23;;;;;;;;;;;;;;;22.23;33.02;101335.75;2084019;28;799;-61
2022/05/22 03:17:24;;;;;;;;;;;;;;;22.24;33.58;101339.31;2083864;28;1268;-60
2022/05/22 03:18:24;;;;;;;;;;;;;;;22.23;33.60;101332.16;2084089;28;794;-59
2022/05/22 03:19:24;;;;;;;;;;;;;;;22.24;33.14;101333.91;2083928;28;988;-60
2022/05/22 03:20:24;;;;;;;;;;;;;;;22.24;33.94;101342.91;2083933;28;1973;-61
2022/05/22 03:21:24;;;;;;;;;;;;;;;22.23;33.42;101338.44;2083963;28;960;-60
2022/05/22 03:22:25;;;;;;;;;;;;;;;22.23;33.72;101338.44;2083926;28;973;-60
2022/05/22 03:23:25;;;;;;;;;;;;;;;22.24;33.71;101342.00;2083950;28;815;-60
2022/05/22 03:24:25;;;;;;;;;;;;;;;22.17;33.93;101325.16;2084608;28;980;-61
2022/05/22 03:25:26;;;;;;;;;;;;;;;22.23;33.04;101334.84;2083945;28;795;-60
2022/05/22 03:26:26;;;;;;;;;;;;;;;22.22;33.88;101339.38;2083927;28;842;-61
2022/05/22 03:27:26;;;;;;;;;;;;;;;22.22;33.71;101333.97;2083928;28;1049;-60
2022/05/22 03:28:26;;;;;;;;;;;;;;;22.23;33.18;101334.84;2083962;28;834;-60
2022/05/22 03:29:26;;;;;;;;;;;;;;;22.21;33.58;101334.91;2083912;28;870;-61
2022/05/22 03:30:28;;;;;;;;;;;;;;;22.21;33.89;101332.22;2083918;28;843;-61
2022/05/22 03:31:28;;;;;;;;;;;;;;;22.21;33.40;101334.91;2083850;28;847;-60
2022/05/22 03:32:28;;;;;;;;;;;;;;;22.20;33.69;101331.31;2083868;28;782;-60
2022/05/22 03:33:28;;;;;;;;;;;;;;;22.19;33.69;101334.94;2083860;28;791;-60
2022/05/22 03:34:29;;;;;;;;;;;;;;;22.19;33.60;101332.25;2083836;28;1028;-61
2022/05/22 03:35:29;;;;;;;;;;;;;;;22.21;33.45;101337.63;2084101;28;705;-61
2022/05/22 03:36:29;;;;;;;;;;;;;;;22.21;33.35;101337.63;2083800;28;878;-62
2022/05/22 03:37:30;;;;;;;;;;;;;;;22.21;33.24;101338.47;2083192;28;870;-62
2022/05/22 03:38:30;;;;;;;;;;;;;;;22.21;33.94;101334.91;2083246;28;906;-61
2022/05/22 03:39:30;;;;;;;;;;;;;;;22.21;33.33;101332.22;2083845;28;891;-60
2022/05/22 03:40:31;;;;;;;;;;;;;;;22.20;33.66;101336.72;2083641;28;1894;-60
2022/05/22 03:41:31;;;;;;;;;;;;;;;22.19;33.58;101340.34;2083917;28;1626;-61
2022/05/22 03:42:31;;;;;;;;;;;;;;;22.21;33.57;101343.00;2083799;28;740;-61
2022/05/22 03:43:31;;;;;;;;;;;;;;;22.21;33.25;101348.41;2083847;28;1090;-60
2022/05/22 03:44:31;;;;;;;;;;;;;;;22.21;33.26;101345.72;2083768;28;781;-60
2022/05/22 03:45:32;;;;;;;;;;;;;;;22.21;34.07;101343.88;2083842;28;820;-60
2022/05/22 03:46:32;;;;;;;;;;;;;;;22.21;33.46;101346.56;2083753;28;687;-61
2022/05/22 03:47:32;;;;;;;;;;;;;;;22.21;33.29;101346.56;2083829;28;807;-61
2022/05/22 03:48:32;;;;;;;;;;;;;;;22.21;33.74;101345.72;2083749;28;985;-61
2022/05/22 03:49:32;;;;;;;;;;;;;;;22.22;33.22;101344.78;2083864;28;719;-60
2022/05/22 03:50:33;;;;;;;;;;;;;;;22.21;33.45;101348.41;2083793;28;898;-60
2022/05/22 03:51:34;;;;;;;;;;;;;;;22.21;33.73;101349.28;2083724;28;791;-60
2022/05/22 03:52:39;;;;;;;;;;;;;;;22.22;34.17;101344.78;2083754;28;819;-60
2022/05/22 03:53:39;;;;;;;;;;;;;;;22.20;33.54;101347.50;2083764;28;771;-60
2022/05/22 03:54:39;;;;;;;;;;;;;;;22.21;33.68;101353.81;2083698;28;973;-60
2022/05/22 03:55:42;;;;;;;;;;;;;;;22.19;33.33;101343.03;2083743;28;1006;-60
2022/05/22 03:56:42;;;;;;;;;;;;;;;22.21;33.42;101345.72;2083702;28;894;-61
2022/05/22 03:57:46;;;;;;;;;;;;;;;22.19;33.43;101344.88;2083664;28;997;-60
2022/05/22 03:58:47;;;;;;;;;;;;;;;22.19;33.61;101344.88;2082933;28;808;-61
2022/05/22 03:59:47;;;;;;;;;;;;;;;22.18;34.22;101348.50;2082996;28;1964;-60
2022/05/22 04:00:47;;;;;;;;;;;;;;;22.18;33.89;101348.50;2083641;28;1029;-61
2022/05/22 04:01:47;;;;;;;;;;;;;;;22.83;32.98;101349.06;2083633;28;898;-60
2022/05/22 04:02:47;;;;;;;;;;;;;;;23.86;31.44;101345.31;2083636;28;740;-60
2022/05/22 04:03:47;;;;;;;;;;;;;;;24.54;29.88;101345.31;2083629;28;981;-59
2022/05/22 04:04:48;;;;;;;;;;;;;;;25.05;29.36;101344.97;2082950;28;1280;-61
2022/05/22 04:05:48;;;;;;;;;;;;;;;25.47;28.50;101337.69;2083088;28;831;-61
2022/05/22 04:06:49;;;;;;;;;;;;;;;25.79;27.26;101338.88;2083015;28;919;-61
2022/05/22 04:07:49;;;;;;;;;;;;;;;25.88;26.93;101338.44;2082970;28;815;-61
2022/05/22 04:08:50;;;;;;;;;;;;;;;26.16;27.03;101336.25;2091119;28;1053;-61
2022/05/22 04:09:50;;;;;;;;;;;;;;;26.36;26.35;101334.34;2091221;28;973;-61
2022/05/22 04:10:50;;;;;;;;;;;;;;;26.68;25.91;101343.56;2083589;28;949;-60
2022/05/22 04:11:50;;;;;;;;;;;;;;;26.86;25.67;101333.59;2083579;28;1024;-60
2022/05/22 04:12:50;;;;;;;;;;;;;;;27.12;25.55;101333.19;2083555;28;1001;-61
2022/05/22 04:13:50;;;;;;;;;;;;;;;27.26;24.81;101329.72;2082878;28;1432;-62
2022/05/22 04:14:54;;;;;;;;;;;;;;;27.49;24.31;101331.22;2074685;28;886;-61
2022/05/22 04:15:54;;;;;;;;;;;;;;;27.71;24.33;101336.34;2082984;28;788;-60
2022/05/22 04:16:54;;;;;;;;;;;;;;;27.85;24.57;101332.81;2083515;28;993;-61
2022/05/22 04:17:54;;;;;;;;;;;;;;;27.88;24.58;101335.38;2082732;28;1189;-62
2022/05/22 04:18:54;;;;;;;;;;;;;;;28.03;24.05;101338.19;2082866;28;886;-61
2022/05/22 04:19:55;;;;;;;;;;;;;;;28.27;24.19;101338.63;2083483;28;1914;-61
2022/05/22 04:20:55;;;;;;;;;;;;;;;28.35;24.08;101338.16;2083523;28;850;-61
2022/05/22 04:21:55;;;;;;;;;;;;;;;28.47;23.15;101340.16;2083346;28;1001;-61
2022/05/22 04:25:37;;;;;;;;;;;;;;;28.94;23.02;101334.69;2085008;28;669;-61
2022/05/22 04:26:37;;;;;;;;;;;;;;;29.17;22.68;101343.28;2083509;28;823;-61
2022/05/22 04:27:38;;;;;;;;;;;;;;;29.28;22.70;101340.78;2083481;28;989;-60
2022/05/22 04:28:38;;;;;;;;;;;;;;;29.33;22.68;101327.72;2083415;28;871;-61
2022/05/22 04:29:38;;;;;;;;;;;;;;;29.36;22.33;101329.38;2083442;28;958;-61
2022/05/22 04:30:39;;;;;;;;;;;;;;;29.44;22.05;101333.38;2083478;28;872;-61
2022/05/22 04:31:39;;;;;;;;;;;;;;;29.50;22.44;101326.69;2083435;28;985;-61
2022/05/22 04:32:39;;;;;;;;;;;;;;;29.46;22.05;101332.41;2083412;28;993;-60
2022/05/22 04:33:39;;;;;;;;;;;;;;;29.59;22.62;101333.38;2083368;28;651;-60
2022/05/22 04:34:39;;;;;;;;;;;;;;;29.78;22.22;101332.19;2083345;28;1012;-60
2022/05/22 04:35:40;;;;;;;;;;;;;;;29.77;22.11;101336.75;2083348;28;989;-60
2022/05/22 04:36:40;;;;;;;;;;;;;;;29.82;21.89;101336.47;2083368;28;846;-61
2022/05/22 04:37:40;;;;;;;;;;;;;;;29.73;21.83;101333.38;2083304;28;1204;-61
2022/05/22 04:38:40;;;;;;;;;;;;;;;29.89;21.95;101343.28;2083374;28;788;-60
2022/05/22 04:39:41;;;;;;;;;;;;;;;29.89;22.00;101337.84;2083823;28;772;-61
2022/05/22 04:40:41;;;;;;;;;;;;;;;30.14;21.68;101342.56;2083482;28;859;-61
2022/05/22 04:41:41;;;;;;;;;;;;;;;30.08;22.08;101336.63;2083354;28;914;-60
2022/05/22 04:42:41;;;;;;;;;;;;;;;30.02;22.05;101343.38;2083333;28;982;-60
2022/05/22 04:43:42;;;;;;;;;;;;;;;30.08;22.03;101342.97;2083313;28;809;-61
2022/05/22 04:44:42;;;;;;;;;;;;;;;30.20;21.29;101337.69;2083445;28;989;-60
2022/05/22 04:45:42;;;;;;;;;;;;;;;30.15;21.77;101341.59;2083405;28;795;-60
2022/05/22 04:46:42;;;;;;;;;;;;;;;30.16;21.81;101339.72;2083278;28;840;-60
2022/05/22 04:47:43;;;;;;;;;;;;;;;30.23;21.50;101343.81;2083330;28;978;-60
2022/05/22 04:48:43;;;;;;;;;;;;;;;30.24;21.67;101340.09;2083342;28;787;-60
2022/05/22 04:49:43;;;;;;;;;;;;;;;30.40;21.50;101334.47;2083298;28;827;-60
2022/05/22 04:50:46;;;;;;;;;;;;;;;30.57;21.32;101343.38;2083257;28;799;-60
2022/05/22 04:51:46;;;;;;;;;;;;;;;30.67;21.15;101341.78;2083240;28;866;-60
2022/05/22 04:52:46;;;;;;;;;;;;;;;30.94;21.36;101339.97;2083266;28;914;-60
2022/05/22 04:53:47;;;;;;;;;;;;;;;30.99;21.30;101337.78;2083275;28;903;-60
2022/05/22 04:54:47;;;;;;;;;;;;;;;30.87;21.16;101340.41;2085388;28;985;-60
2022/05/22 04:55:47;;;;;;;;;;;;;;;30.82;20.77;101341.72;2083196;28;857;-60
2022/05/22 04:56:47;;;;;;;;;;;;;;;30.76;21.73;101338.41;2083240;28;1045;-61
2022/05/22 04:57:47;;;;;;;;;;;;;;;30.93;20.94;101336.34;2083200;28;1005;-62
2022/05/22 04:58:48;;;;;;;;;;;;;;;31.04;20.78;101343.81;2083325;28;619;-60
2022/05/22 04:59:48;;;;;;;;;;;;;;;31.17;20.97;101341.09;2083136;28;1890;-61
2022/05/22 05:00:48;;;;;;;;;;;;;;;30.99;20.26;101332.31;2083190;28;658;-60
2022/05/22 05:01:48;;;;;;;;;;;;;;;30.97;21.11;101332.41;2082466;28;1270;-60
2022/05/22 05:02:48;;;;;;;;;;;;;;;31.19;20.87;101336.41;2082509;28;981;-61
2022/05/22 05:03:49;;;;;;;;;;;;;;;31.07;20.55;101340.88;2083114;28;1072;-60
2022/05/22 05:04:52;;;;;;;;;;;;;;;31.28;20.74;101341.22;2083156;28;812;-60
2022/05/22 05:05:53;;;;;;;;;;;;;;;31.11;20.77;101339.66;2083159;28;812;-62
2022/05/22 05:06:53;;;;;;;;;;;;;;;31.13;20.76;101342.28;2083082;28;772;-60
2022/05/22 05:07:54;;;;;;;;;;;;;;;31.20;20.74;101346.34;2083211;28;795;-61
2022/05/22 05:08:54;;;;;;;;;;;;;;;31.47;20.77;101342.63;2082373;28;1980;-61
2022/05/22 05:09:54;;;;;;;;;;;;;;;31.52;20.37;101340.41;2083421;28;632;-60
2022/05/22 05:10:54;;;;;;;;;;;;;;;31.41;20.69;101351.28;2084150;28;1079;-60
2022/05/22 05:11:55;;;;;;;;;;;;;;;31.50;20.61;101348.75;2083067;28;785;-60
2022/05/22 05:12:55;;;;;;;;;;;;;;;31.56;20.25;101350.16;2083247;28;887;-61
2022/05/22 05:13:55;;;;;;;;;;;;;;;31.52;20.13;101343.16;2083105;28;1031;-61
2022/05/22 05:14:55;;;;;;;;;;;;;;;31.28;20.45;101351.28;2083151;28;870;-61
2022/05/22 05:16:00;;;;;;;;;;;;;;;31.36;20.80;101343.38;2083027;28;867;-61
2022/05/22 05:17:00;;;;;;;;;;;;;;;31.45;20.45;101350.09;2083002;28;1577;-61
2022/05/22 05:18:00;;;;;;;;;;;;;;;31.40;20.58;101346.78;2083018;28;1261;-61
2022/05/22 05:19:01;;;;;;;;;;;;;;;31.40;20.60;101350.41;2083052;28;866;-61
2022/05/22 05:20:02;;;;;;;;;;;;;;;31.53;20.21;101344.03;2083046;28;1902;-61
2022/05/22 05:21:03;;;;;;;;;;;;;;;31.48;20.28;101342.50;2083075;28;954;-61
2022/05/22 05:22:04;;;;;;;;;;;;;;;31.50;20.12;101346.00;2083014;28;909;-61
2022/05/22 05:23:04;;;;;;;;;;;;;;;31.50;20.08;101343.28;2083045;28;910;-60
2022/05/22 05:24:05;;;;;;;;;;;;;;;31.45;20.21;101353.69;2082949;28;990;-60
2022/05/22 05:25:05;;;;;;;;;;;;;;;31.52;20.24;101348.63;2082977;28;1016;-61
2022/05/22 05:26:05;;;;;;;;;;;;;;;31.61;20.02;101344.34;2083024;28;1238;-60
2022/05/22 05:27:06;;;;;;;;;;;;;;;31.67;20.11;101346.66;2083010;28;740;-61
2022/05/22 05:28:06;;;;;;;;;;;;;;;31.62;19.90;101351.59;2083043;28;744;-60